sensor_id;sensor_type;location;lat;lon;timestamp;P1;durP1;ratioP1;P2;durP2;ratioP2
19776;SDS011;10047;42.490;26.012;2023-08-21T00:00:13;7.90;;;4.60;;
19776;SDS011;10047;42.490;26.012;2023-08-21T00:02:39;7.43;;;4.30;;
19776;SDS011;10047;42.490;26.012;2023-08-21T00:05:05;5.40;;;4.18;;
19776;SDS011;10047;42.490;26.012;2023-08-21T00:07:31;7.30;;;4.00;;
19776;SDS011;10047;42.490;26.012;2023-08-21T00:09:56;7.97;;;4.18;;
19776;SDS011;10047;42.490;26.012;2023-08-21T00:12:22;7.40;;;4.25;;
19776;SDS011;10047;42.490;26.012;2023-08-21T00:14:47;5.63;;;4.13;;
19776;SDS011;10047;42.490;26.012;2023-08-21T00:17:12;7.65;;;4.43;;
19776;SDS011;10047;42.490;26.012;2023-08-21T00:19:38;5.75;;;4.25;;
19776;SDS011;10047;42.490;26.012;2023-08-21T00:22:03;9.73;;;4.07;;
19776;SDS011;10047;42.490;26.012;2023-08-21T00:24:29;8.82;;;4.57;;
19776;SDS011;10047;42.490;26.012;2023-08-21T00:26:54;5.03;;;3.70;;
19776;SDS011;10047;42.490;26.012;2023-08-21T00:29:19;8.65;;;3.80;;
19776;SDS011;10047;42.490;26.012;2023-08-21T00:31:45;8.65;;;3.90;;
19776;SDS011;10047;42.490;26.012;2023-08-21T00:34:10;6.40;;;3.97;;
19776;SDS011;10047;42.490;26.012;2023-08-21T00:36:36;9.13;;;4.53;;
19776;SDS011;10047;42.490;26.012;2023-08-21T00:39:01;6.97;;;3.80;;
19776;SDS011;10047;42.490;26.012;2023-08-21T00:41:27;8.05;;;3.75;;
19776;SDS011;10047;42.490;26.012;2023-08-21T00:43:52;10.07;;;4.20;;
19776;SDS011;10047;42.490;26.012;2023-08-21T00:46:18;7.43;;;3.83;;
19776;SDS011;10047;42.490;26.012;2023-08-21T00:48:44;7.28;;;4.05;;
19776;SDS011;10047;42.490;26.012;2023-08-21T00:51:09;8.38;;;3.70;;
19776;SDS011;10047;42.490;26.012;2023-08-21T00:53:37;6.82;;;3.90;;
19776;SDS011;10047;42.490;26.012;2023-08-21T00:56:03;6.97;;;3.60;;
19776;SDS011;10047;42.490;26.012;2023-08-21T00:58:29;7.00;;;3.80;;
19776;SDS011;10047;42.490;26.012;2023-08-21T01:00:54;7.13;;;3.92;;
19776;SDS011;10047;42.490;26.012;2023-08-21T01:03:20;10.48;;;4.07;;
19776;SDS011;10047;42.490;26.012;2023-08-21T01:05:46;6.28;;;3.55;;
19776;SDS011;10047;42.490;26.012;2023-08-21T01:08:13;9.98;;;4.18;;
19776;SDS011;10047;42.490;26.012;2023-08-21T01:10:54;4.95;;;3.92;;
19776;SDS011;10047;42.490;26.012;2023-08-21T01:13:59;6.97;;;4.03;;
19776;SDS011;10047;42.490;26.012;2023-08-21T01:18:41;5.90;;;3.90;;
19776;SDS011;10047;42.490;26.012;2023-08-21T01:21:08;6.18;;;4.22;;
19776;SDS011;10047;42.490;26.012;2023-08-21T01:23:37;5.35;;;3.83;;
19776;SDS011;10047;42.490;26.012;2023-08-21T01:26:04;5.53;;;3.85;;
19776;SDS011;10047;42.490;26.012;2023-08-21T01:28:30;6.97;;;4.22;;
19776;SDS011;10047;42.490;26.012;2023-08-21T01:30:59;8.82;;;3.97;;
19776;SDS011;10047;42.490;26.012;2023-08-21T01:33:30;6.35;;;4.10;;
19776;SDS011;10047;42.490;26.012;2023-08-21T01:36:00;7.32;;;4.07;;
19776;SDS011;10047;42.490;26.012;2023-08-21T01:38:29;7.10;;;4.15;;
19776;SDS011;10047;42.490;26.012;2023-08-21T01:40:58;7.28;;;3.78;;
19776;SDS011;10047;42.490;26.012;2023-08-21T01:43:23;6.05;;;4.20;;
19776;SDS011;10047;42.490;26.012;2023-08-21T01:45:49;6.70;;;4.35;;
19776;SDS011;10047;42.490;26.012;2023-08-21T01:48:15;9.48;;;4.45;;
19776;SDS011;10047;42.490;26.012;2023-08-21T01:50:40;7.82;;;4.32;;
19776;SDS011;10047;42.490;26.012;2023-08-21T01:53:05;6.80;;;4.00;;
19776;SDS011;10047;42.490;26.012;2023-08-21T01:55:32;6.60;;;4.13;;
19776;SDS011;10047;42.490;26.012;2023-08-21T01:57:57;7.15;;;4.22;;
19776;SDS011;10047;42.490;26.012;2023-08-21T02:00:23;8.68;;;4.40;;
19776;SDS011;10047;42.490;26.012;2023-08-21T02:02:48;5.88;;;4.25;;
19776;SDS011;10047;42.490;26.012;2023-08-21T02:05:13;6.13;;;4.22;;
19776;SDS011;10047;42.490;26.012;2023-08-21T02:07:39;5.88;;;4.53;;
19776;SDS011;10047;42.490;26.012;2023-08-21T02:10:04;9.93;;;4.38;;
19776;SDS011;10047;42.490;26.012;2023-08-21T02:12:30;8.70;;;4.57;;
19776;SDS011;10047;42.490;26.012;2023-08-21T02:14:56;7.82;;;4.32;;
19776;SDS011;10047;42.490;26.012;2023-08-21T02:17:21;7.60;;;4.38;;
19776;SDS011;10047;42.490;26.012;2023-08-21T02:19:46;9.90;;;4.30;;
19776;SDS011;10047;42.490;26.012;2023-08-21T02:22:12;8.60;;;4.07;;
19776;SDS011;10047;42.490;26.012;2023-08-21T02:24:37;4.80;;;4.07;;
19776;SDS011;10047;42.490;26.012;2023-08-21T02:27:03;10.52;;;4.10;;
19776;SDS011;10047;42.490;26.012;2023-08-21T02:29:28;9.05;;;4.38;;
19776;SDS011;10047;42.490;26.012;2023-08-21T02:31:54;12.63;;;4.15;;
19776;SDS011;10047;42.490;26.012;2023-08-21T02:34:19;11.13;;;4.72;;
19776;SDS011;10047;42.490;26.012;2023-08-21T02:36:45;7.55;;;3.95;;
19776;SDS011;10047;42.490;26.012;2023-08-21T02:39:10;6.38;;;4.22;;
19776;SDS011;10047;42.490;26.012;2023-08-21T02:41:35;10.02;;;4.70;;
19776;SDS011;10047;42.490;26.012;2023-08-21T02:44:01;8.77;;;3.97;;
19776;SDS011;10047;42.490;26.012;2023-08-21T02:46:26;7.18;;;3.90;;
19776;SDS011;10047;42.490;26.012;2023-08-21T02:48:52;6.10;;;4.57;;
19776;SDS011;10047;42.490;26.012;2023-08-21T02:51:17;9.55;;;4.55;;
19776;SDS011;10047;42.490;26.012;2023-08-21T02:53:43;6.88;;;4.30;;
19776;SDS011;10047;42.490;26.012;2023-08-21T02:56:08;6.18;;;4.10;;
19776;SDS011;10047;42.490;26.012;2023-08-21T02:58:34;8.40;;;4.68;;
19776;SDS011;10047;42.490;26.012;2023-08-21T03:00:59;5.43;;;4.40;;
19776;SDS011;10047;42.490;26.012;2023-08-21T03:03:24;7.60;;;4.70;;
19776;SDS011;10047;42.490;26.012;2023-08-21T03:05:50;8.00;;;4.25;;
19776;SDS011;10047;42.490;26.012;2023-08-21T03:08:15;8.85;;;4.50;;
19776;SDS011;10047;42.490;26.012;2023-08-21T03:10:41;7.45;;;4.50;;
19776;SDS011;10047;42.490;26.012;2023-08-21T03:13:07;7.70;;;4.50;;
19776;SDS011;10047;42.490;26.012;2023-08-21T03:15:32;7.55;;;4.25;;
19776;SDS011;10047;42.490;26.012;2023-08-21T03:18:00;6.18;;;4.25;;
19776;SDS011;10047;42.490;26.012;2023-08-21T03:20:25;6.30;;;4.50;;
19776;SDS011;10047;42.490;26.012;2023-08-21T03:22:51;10.40;;;4.57;;
19776;SDS011;10047;42.490;26.012;2023-08-21T03:25:16;7.95;;;4.50;;
19776;SDS011;10047;42.490;26.012;2023-08-21T03:27:41;7.88;;;4.55;;
19776;SDS011;10047;42.490;26.012;2023-08-21T03:30:09;9.50;;;4.50;;
19776;SDS011;10047;42.490;26.012;2023-08-21T03:32:35;9.75;;;4.47;;
19776;SDS011;10047;42.490;26.012;2023-08-21T03:35:00;7.95;;;4.60;;
19776;SDS011;10047;42.490;26.012;2023-08-21T03:37:26;8.52;;;5.00;;
19776;SDS011;10047;42.490;26.012;2023-08-21T03:39:51;6.20;;;4.68;;
19776;SDS011;10047;42.490;26.012;2023-08-21T03:42:17;10.80;;;4.78;;
19776;SDS011;10047;42.490;26.012;2023-08-21T03:44:42;8.00;;;4.45;;
19776;SDS011;10047;42.490;26.012;2023-08-21T03:47:08;6.93;;;4.78;;
19776;SDS011;10047;42.490;26.012;2023-08-21T03:49:33;8.63;;;5.07;;
19776;SDS011;10047;42.490;26.012;2023-08-21T03:51:59;9.00;;;4.78;;
19776;SDS011;10047;42.490;26.012;2023-08-21T03:54:24;7.53;;;4.82;;
19776;SDS011;10047;42.490;26.012;2023-08-21T03:56:49;9.00;;;5.10;;
19776;SDS011;10047;42.490;26.012;2023-08-21T03:59:15;7.07;;;4.63;;
19776;SDS011;10047;42.490;26.012;2023-08-21T04:01:40;10.30;;;4.97;;
19776;SDS011;10047;42.490;26.012;2023-08-21T04:04:06;12.10;;;5.18;;
19776;SDS011;10047;42.490;26.012;2023-08-21T04:06:31;6.75;;;4.75;;
19776;SDS011;10047;42.490;26.012;2023-08-21T04:08:57;6.28;;;4.80;;
19776;SDS011;10047;42.490;26.012;2023-08-21T04:11:22;6.85;;;4.90;;
19776;SDS011;10047;42.490;26.012;2023-08-21T04:13:47;8.13;;;4.70;;
19776;SDS011;10047;42.490;26.012;2023-08-21T04:16:13;9.43;;;4.82;;
19776;SDS011;10047;42.490;26.012;2023-08-21T04:18:38;7.22;;;5.07;;
19776;SDS011;10047;42.490;26.012;2023-08-21T04:21:04;11.07;;;5.10;;
19776;SDS011;10047;42.490;26.012;2023-08-21T04:23:29;8.85;;;5.03;;
19776;SDS011;10047;42.490;26.012;2023-08-21T04:26:01;13.82;;;5.68;;
19776;SDS011;10047;42.490;26.012;2023-08-21T04:28:28;8.13;;;5.50;;
19776;SDS011;10047;42.490;26.012;2023-08-21T04:30:54;8.20;;;5.47;;
19776;SDS011;10047;42.490;26.012;2023-08-21T04:33:22;10.05;;;6.00;;
19776;SDS011;10047;42.490;26.012;2023-08-21T04:35:49;14.35;;;5.07;;
19776;SDS011;10047;42.490;26.012;2023-08-21T04:38:14;11.70;;;5.47;;
19776;SDS011;10047;42.490;26.012;2023-08-21T04:40:39;9.70;;;5.15;;
19776;SDS011;10047;42.490;26.012;2023-08-21T04:43:05;7.72;;;5.22;;
19776;SDS011;10047;42.490;26.012;2023-08-21T04:45:30;9.45;;;4.68;;
19776;SDS011;10047;42.490;26.012;2023-08-21T04:47:56;11.50;;;5.40;;
19776;SDS011;10047;42.490;26.012;2023-08-21T04:50:21;10.27;;;5.35;;
19776;SDS011;10047;42.490;26.012;2023-08-21T04:52:46;7.13;;;5.40;;
19776;SDS011;10047;42.490;26.012;2023-08-21T04:55:14;10.98;;;4.88;;
19776;SDS011;10047;42.490;26.012;2023-08-21T04:57:39;15.60;;;5.32;;
19776;SDS011;10047;42.490;26.012;2023-08-21T05:00:05;8.73;;;5.57;;
19776;SDS011;10047;42.490;26.012;2023-08-21T05:02:30;8.30;;;5.60;;
19776;SDS011;10047;42.490;26.012;2023-08-21T05:04:56;12.70;;;5.50;;
19776;SDS011;10047;42.490;26.012;2023-08-21T05:07:21;8.25;;;5.28;;
19776;SDS011;10047;42.490;26.012;2023-08-21T05:09:47;11.63;;;6.05;;
19776;SDS011;10047;42.490;26.012;2023-08-21T05:12:12;9.43;;;6.63;;
19776;SDS011;10047;42.490;26.012;2023-08-21T05:14:37;10.70;;;6.38;;
19776;SDS011;10047;42.490;26.012;2023-08-21T05:17:03;9.45;;;6.38;;
19776;SDS011;10047;42.490;26.012;2023-08-21T05:19:29;7.93;;;5.88;;
19776;SDS011;10047;42.490;26.012;2023-08-21T05:21:54;9.75;;;6.82;;
19776;SDS011;10047;42.490;26.012;2023-08-21T05:24:20;8.50;;;6.20;;
19776;SDS011;10047;42.490;26.012;2023-08-21T05:26:45;10.65;;;5.88;;
19776;SDS011;10047;42.490;26.012;2023-08-21T05:29:10;10.70;;;5.80;;
19776;SDS011;10047;42.490;26.012;2023-08-21T05:31:36;9.00;;;5.88;;
19776;SDS011;10047;42.490;26.012;2023-08-21T05:34:01;10.60;;;5.70;;
19776;SDS011;10047;42.490;26.012;2023-08-21T05:36:27;7.78;;;5.22;;
19776;SDS011;10047;42.490;26.012;2023-08-21T05:38:52;8.00;;;5.82;;
19776;SDS011;10047;42.490;26.012;2023-08-21T05:41:18;8.18;;;5.60;;
19776;SDS011;10047;42.490;26.012;2023-08-21T05:43:43;6.95;;;5.50;;
19776;SDS011;10047;42.490;26.012;2023-08-21T05:46:10;7.60;;;5.53;;
19776;SDS011;10047;42.490;26.012;2023-08-21T05:48:36;11.15;;;5.72;;
19776;SDS011;10047;42.490;26.012;2023-08-21T05:51:01;8.73;;;5.45;;
19776;SDS011;10047;42.490;26.012;2023-08-21T05:53:28;10.43;;;5.90;;
19776;SDS011;10047;42.490;26.012;2023-08-21T05:55:54;12.07;;;5.53;;
19776;SDS011;10047;42.490;26.012;2023-08-21T05:58:19;10.98;;;5.53;;
19776;SDS011;10047;42.490;26.012;2023-08-21T06:00:46;8.80;;;5.60;;
19776;SDS011;10047;42.490;26.012;2023-08-21T06:03:12;10.57;;;5.65;;
19776;SDS011;10047;42.490;26.012;2023-08-21T06:05:37;11.77;;;5.88;;
19776;SDS011;10047;42.490;26.012;2023-08-21T06:08:02;7.60;;;5.90;;
19776;SDS011;10047;42.490;26.012;2023-08-21T06:10:28;7.60;;;5.32;;
19776;SDS011;10047;42.490;26.012;2023-08-21T06:12:53;7.75;;;5.40;;
19776;SDS011;10047;42.490;26.012;2023-08-21T06:15:19;11.18;;;5.13;;
19776;SDS011;10047;42.490;26.012;2023-08-21T06:17:44;10.85;;;5.55;;
19776;SDS011;10047;42.490;26.012;2023-08-21T06:20:10;12.23;;;5.70;;
19776;SDS011;10047;42.490;26.012;2023-08-21T06:22:35;8.75;;;5.85;;
19776;SDS011;10047;42.490;26.012;2023-08-21T06:25:01;10.15;;;5.43;;
19776;SDS011;10047;42.490;26.012;2023-08-21T06:27:27;9.35;;;5.10;;
19776;SDS011;10047;42.490;26.012;2023-08-21T06:29:52;7.80;;;5.10;;
19776;SDS011;10047;42.490;26.012;2023-08-21T06:32:18;7.40;;;4.90;;
19776;SDS011;10047;42.490;26.012;2023-08-21T06:34:43;9.43;;;5.50;;
19776;SDS011;10047;42.490;26.012;2023-08-21T06:37:09;11.35;;;5.57;;
19776;SDS011;10047;42.490;26.012;2023-08-21T06:39:34;11.10;;;5.78;;
19776;SDS011;10047;42.490;26.012;2023-08-21T06:42:00;9.98;;;5.90;;
19776;SDS011;10047;42.490;26.012;2023-08-21T06:44:25;16.27;;;6.50;;
19776;SDS011;10047;42.490;26.012;2023-08-21T06:46:51;12.23;;;6.20;;
19776;SDS011;10047;42.490;26.012;2023-08-21T06:49:16;8.93;;;5.60;;
19776;SDS011;10047;42.490;26.012;2023-08-21T06:51:42;12.45;;;5.40;;
19776;SDS011;10047;42.490;26.012;2023-08-21T06:54:08;13.43;;;5.78;;
19776;SDS011;10047;42.490;26.012;2023-08-21T06:56:33;8.50;;;5.32;;
19776;SDS011;10047;42.490;26.012;2023-08-21T06:58:59;9.40;;;5.55;;
19776;SDS011;10047;42.490;26.012;2023-08-21T07:01:24;10.15;;;5.32;;
19776;SDS011;10047;42.490;26.012;2023-08-21T07:03:50;7.07;;;4.88;;
19776;SDS011;10047;42.490;26.012;2023-08-21T07:06:15;11.68;;;5.47;;
19776;SDS011;10047;42.490;26.012;2023-08-21T07:08:41;9.32;;;5.10;;
19776;SDS011;10047;42.490;26.012;2023-08-21T07:11:07;10.38;;;4.97;;
19776;SDS011;10047;42.490;26.012;2023-08-21T07:13:35;7.35;;;5.00;;
19776;SDS011;10047;42.490;26.012;2023-08-21T07:16:00;9.98;;;5.30;;
19776;SDS011;10047;42.490;26.012;2023-08-21T07:18:33;13.60;;;5.47;;
19776;SDS011;10047;42.490;26.012;2023-08-21T07:20:59;13.88;;;5.63;;
19776;SDS011;10047;42.490;26.012;2023-08-21T07:23:25;10.93;;;4.80;;
19776;SDS011;10047;42.490;26.012;2023-08-21T07:25:50;6.38;;;4.82;;
19776;SDS011;10047;42.490;26.012;2023-08-21T07:28:16;9.02;;;4.57;;
19776;SDS011;10047;42.490;26.012;2023-08-21T07:30:42;9.27;;;4.82;;
19776;SDS011;10047;42.490;26.012;2023-08-21T07:33:07;10.55;;;5.15;;
19776;SDS011;10047;42.490;26.012;2023-08-21T07:35:33;11.15;;;4.72;;
19776;SDS011;10047;42.490;26.012;2023-08-21T07:37:58;9.77;;;4.70;;
19776;SDS011;10047;42.490;26.012;2023-08-21T07:40:24;7.75;;;4.78;;
19776;SDS011;10047;42.490;26.012;2023-08-21T07:42:49;11.00;;;4.80;;
19776;SDS011;10047;42.490;26.012;2023-08-21T07:45:15;6.43;;;4.30;;
19776;SDS011;10047;42.490;26.012;2023-08-21T07:47:41;8.23;;;3.83;;
19776;SDS011;10047;42.490;26.012;2023-08-21T07:50:06;5.15;;;3.63;;
19776;SDS011;10047;42.490;26.012;2023-08-21T07:52:33;7.97;;;3.75;;
19776;SDS011;10047;42.490;26.012;2023-08-21T07:54:59;7.75;;;3.60;;
19776;SDS011;10047;42.490;26.012;2023-08-21T07:57:26;6.47;;;4.00;;
19776;SDS011;10047;42.490;26.012;2023-08-21T07:59:55;5.85;;;3.80;;
19776;SDS011;10047;42.490;26.012;2023-08-21T08:02:20;6.07;;;3.30;;
19776;SDS011;10047;42.490;26.012;2023-08-21T08:04:46;7.20;;;3.47;;
19776;SDS011;10047;42.490;26.012;2023-08-21T08:07:12;8.93;;;4.60;;
19776;SDS011;10047;42.490;26.012;2023-08-21T08:09:37;8.13;;;3.90;;
19776;SDS011;10047;42.490;26.012;2023-08-21T08:12:03;8.88;;;3.20;;
19776;SDS011;10047;42.490;26.012;2023-08-21T08:14:29;11.68;;;3.72;;
19776;SDS011;10047;42.490;26.012;2023-08-21T08:16:54;7.80;;;3.40;;
19776;SDS011;10047;42.490;26.012;2023-08-21T08:19:19;4.93;;;3.53;;
19776;SDS011;10047;42.490;26.012;2023-08-21T08:21:45;7.75;;;3.20;;
19776;SDS011;10047;42.490;26.012;2023-08-21T08:24:10;9.82;;;3.70;;
19776;SDS011;10047;42.490;26.012;2023-08-21T08:26:37;7.25;;;3.35;;
19776;SDS011;10047;42.490;26.012;2023-08-21T08:29:03;6.45;;;3.42;;
19776;SDS011;10047;42.490;26.012;2023-08-21T08:31:30;8.20;;;3.40;;
19776;SDS011;10047;42.490;26.012;2023-08-21T08:33:55;8.13;;;3.38;;
19776;SDS011;10047;42.490;26.012;2023-08-21T08:36:21;6.63;;;2.10;;
19776;SDS011;10047;42.490;26.012;2023-08-21T08:38:47;7.93;;;2.97;;
19776;SDS011;10047;42.490;26.012;2023-08-21T08:41:25;8.07;;;2.30;;
19776;SDS011;10047;42.490;26.012;2023-08-21T08:43:56;6.93;;;2.45;;
19776;SDS011;10047;42.490;26.012;2023-08-21T08:46:23;5.35;;;2.90;;
19776;SDS011;10047;42.490;26.012;2023-08-21T08:48:53;4.88;;;2.30;;
19776;SDS011;10047;42.490;26.012;2023-08-21T08:51:19;7.03;;;2.78;;
19776;SDS011;10047;42.490;26.012;2023-08-21T08:53:45;7.55;;;2.30;;
19776;SDS011;10047;42.490;26.012;2023-08-21T08:56:10;6.38;;;2.00;;
19776;SDS011;10047;42.490;26.012;2023-08-21T08:58:36;4.78;;;1.90;;
19776;SDS011;10047;42.490;26.012;2023-08-21T09:01:01;6.78;;;1.90;;
19776;SDS011;10047;42.490;26.012;2023-08-21T09:03:27;8.98;;;2.20;;
19776;SDS011;10047;42.490;26.012;2023-08-21T09:05:53;4.45;;;2.63;;
19776;SDS011;10047;42.490;26.012;2023-08-21T09:08:18;7.65;;;2.45;;
19776;SDS011;10047;42.490;26.012;2023-08-21T09:10:44;7.30;;;2.70;;
19776;SDS011;10047;42.490;26.012;2023-08-21T09:13:14;5.22;;;2.55;;
19776;SDS011;10047;42.490;26.012;2023-08-21T09:15:48;4.30;;;2.30;;
19776;SDS011;10047;42.490;26.012;2023-08-21T09:18:18;5.68;;;2.30;;
19776;SDS011;10047;42.490;26.012;2023-08-21T09:20:44;4.55;;;2.28;;
19776;SDS011;10047;42.490;26.012;2023-08-21T09:23:16;4.20;;;2.45;;
19776;SDS011;10047;42.490;26.012;2023-08-21T09:25:44;6.00;;;2.65;;
19776;SDS011;10047;42.490;26.012;2023-08-21T09:28:14;5.53;;;2.58;;
19776;SDS011;10047;42.490;26.012;2023-08-21T09:30:46;4.55;;;2.13;;
19776;SDS011;10047;42.490;26.012;2023-08-21T09:33:22;11.93;;;3.10;;
19776;SDS011;10047;42.490;26.012;2023-08-21T09:35:49;7.10;;;2.65;;
19776;SDS011;10047;42.490;26.012;2023-08-21T09:38:17;5.43;;;2.63;;
19776;SDS011;10047;42.490;26.012;2023-08-21T09:40:49;6.72;;;2.50;;
19776;SDS011;10047;42.490;26.012;2023-08-21T09:43:16;6.05;;;2.80;;
19776;SDS011;10047;42.490;26.012;2023-08-21T09:45:42;6.32;;;2.78;;
19776;SDS011;10047;42.490;26.012;2023-08-21T09:48:11;5.90;;;2.25;;
19776;SDS011;10047;42.490;26.012;2023-08-21T09:50:38;9.68;;;2.78;;
19776;SDS011;10047;42.490;26.012;2023-08-21T09:53:05;9.43;;;2.60;;
19776;SDS011;10047;42.490;26.012;2023-08-21T09:55:32;4.43;;;3.17;;
19776;SDS011;10047;42.490;26.012;2023-08-21T09:58:01;5.82;;;3.15;;
19776;SDS011;10047;42.490;26.012;2023-08-21T10:00:34;7.53;;;2.60;;
19776;SDS011;10047;42.490;26.012;2023-08-21T10:03:03;4.78;;;2.75;;
19776;SDS011;10047;42.490;26.012;2023-08-21T10:05:32;6.82;;;3.08;;
19776;SDS011;10047;42.490;26.012;2023-08-21T10:08:00;6.30;;;3.08;;
19776;SDS011;10047;42.490;26.012;2023-08-21T10:10:31;7.53;;;2.90;;
19776;SDS011;10047;42.490;26.012;2023-08-21T10:12:58;4.68;;;2.88;;
19776;SDS011;10047;42.490;26.012;2023-08-21T10:15:24;4.82;;;2.95;;
19776;SDS011;10047;42.490;26.012;2023-08-21T10:17:50;4.10;;;3.00;;
19776;SDS011;10047;42.490;26.012;2023-08-21T10:20:20;6.55;;;2.95;;
19776;SDS011;10047;42.490;26.012;2023-08-21T10:22:52;6.75;;;3.03;;
19776;SDS011;10047;42.490;26.012;2023-08-21T10:25:20;6.95;;;3.10;;
19776;SDS011;10047;42.490;26.012;2023-08-21T10:27:51;10.88;;;3.00;;
19776;SDS011;10047;42.490;26.012;2023-08-21T10:30:21;7.57;;;3.33;;
19776;SDS011;10047;42.490;26.012;2023-08-21T10:32:48;10.70;;;4.10;;
19776;SDS011;10047;42.490;26.012;2023-08-21T10:35:15;5.75;;;3.22;;
19776;SDS011;10047;42.490;26.012;2023-08-21T10:40:37;6.30;;;3.22;;
19776;SDS011;10047;42.490;26.012;2023-08-21T10:43:03;5.57;;;3.47;;
19776;SDS011;10047;42.490;26.012;2023-08-21T10:45:55;10.25;;;3.30;;
19776;SDS011;10047;42.490;26.012;2023-08-21T10:48:20;5.30;;;3.20;;
19776;SDS011;10047;42.490;26.012;2023-08-21T10:50:46;4.60;;;3.35;;
19776;SDS011;10047;42.490;26.012;2023-08-21T10:53:12;7.18;;;3.80;;
19776;SDS011;10047;42.490;26.012;2023-08-21T10:55:38;6.82;;;3.35;;
19776;SDS011;10047;42.490;26.012;2023-08-21T10:58:04;6.05;;;3.60;;
19776;SDS011;10047;42.490;26.012;2023-08-21T11:00:29;8.82;;;3.20;;
19776;SDS011;10047;42.490;26.012;2023-08-21T11:02:54;5.30;;;3.25;;
19776;SDS011;10047;42.490;26.012;2023-08-21T11:05:20;8.80;;;3.47;;
19776;SDS011;10047;42.490;26.012;2023-08-21T11:07:46;7.95;;;3.75;;
19776;SDS011;10047;42.490;26.012;2023-08-21T11:10:16;12.10;;;3.88;;
19776;SDS011;10047;42.490;26.012;2023-08-21T11:12:49;8.25;;;3.65;;
19776;SDS011;10047;42.490;26.012;2023-08-21T11:15:16;5.32;;;3.65;;
19776;SDS011;10047;42.490;26.012;2023-08-21T11:17:42;8.80;;;4.22;;
19776;SDS011;10047;42.490;26.012;2023-08-21T11:20:15;6.30;;;4.20;;
19776;SDS011;10047;42.490;26.012;2023-08-21T11:22:40;8.80;;;4.20;;
19776;SDS011;10047;42.490;26.012;2023-08-21T11:25:06;8.48;;;4.50;;
19776;SDS011;10047;42.490;26.012;2023-08-21T11:27:31;7.93;;;4.40;;
19776;SDS011;10047;42.490;26.012;2023-08-21T11:29:57;11.95;;;5.22;;
19776;SDS011;10047;42.490;26.012;2023-08-21T11:32:23;5.78;;;4.40;;
19776;SDS011;10047;42.490;26.012;2023-08-21T11:37:19;6.00;;;4.15;;
19776;SDS011;10047;42.490;26.012;2023-08-21T11:39:49;6.93;;;4.07;;
19776;SDS011;10047;42.490;26.012;2023-08-21T11:42:20;8.30;;;4.32;;
19776;SDS011;10047;42.490;26.012;2023-08-21T11:44:50;11.52;;;4.18;;
19776;SDS011;10047;42.490;26.012;2023-08-21T11:47:17;6.75;;;3.83;;
19776;SDS011;10047;42.490;26.012;2023-08-21T11:49:45;7.13;;;4.00;;
19776;SDS011;10047;42.490;26.012;2023-08-21T11:52:17;5.40;;;4.00;;
19776;SDS011;10047;42.490;26.012;2023-08-21T11:54:46;9.48;;;4.03;;
19776;SDS011;10047;42.490;26.012;2023-08-21T11:57:13;9.70;;;4.00;;
19776;SDS011;10047;42.490;26.012;2023-08-21T11:59:39;6.63;;;4.10;;
19776;SDS011;10047;42.490;26.012;2023-08-21T12:02:16;9.48;;;4.60;;
19776;SDS011;10047;42.490;26.012;2023-08-21T12:04:43;7.25;;;4.32;;
19776;SDS011;10047;42.490;26.012;2023-08-21T12:07:08;8.70;;;4.40;;
19776;SDS011;10047;42.490;26.012;2023-08-21T12:09:34;6.60;;;4.32;;
19776;SDS011;10047;42.490;26.012;2023-08-21T12:11:59;7.13;;;4.22;;
19776;SDS011;10047;42.490;26.012;2023-08-21T12:14:25;10.40;;;4.50;;
19776;SDS011;10047;42.490;26.012;2023-08-21T12:16:52;7.60;;;4.00;;
19776;SDS011;10047;42.490;26.012;2023-08-21T12:19:17;10.65;;;4.20;;
19776;SDS011;10047;42.490;26.012;2023-08-21T12:21:44;7.43;;;4.25;;
19776;SDS011;10047;42.490;26.012;2023-08-21T12:24:09;10.57;;;4.20;;
19776;SDS011;10047;42.490;26.012;2023-08-21T12:26:35;8.10;;;4.13;;
19776;SDS011;10047;42.490;26.012;2023-08-21T12:29:00;9.10;;;4.20;;
19776;SDS011;10047;42.490;26.012;2023-08-21T12:31:27;8.25;;;4.50;;
19776;SDS011;10047;42.490;26.012;2023-08-21T12:33:53;7.40;;;4.15;;
19776;SDS011;10047;42.490;26.012;2023-08-21T12:36:18;8.73;;;4.15;;
19776;SDS011;10047;42.490;26.012;2023-08-21T12:38:44;7.05;;;4.28;;
19776;SDS011;10047;42.490;26.012;2023-08-21T12:41:10;8.50;;;4.32;;
19776;SDS011;10047;42.490;26.012;2023-08-21T12:43:35;8.18;;;4.55;;
19776;SDS011;10047;42.490;26.012;2023-08-21T12:46:00;11.05;;;4.13;;
19776;SDS011;10047;42.490;26.012;2023-08-21T12:48:26;6.97;;;5.18;;
19776;SDS011;10047;42.490;26.012;2023-08-21T12:50:51;11.75;;;5.40;;
19776;SDS011;10047;42.490;26.012;2023-08-21T12:53:17;9.00;;;5.07;;
19776;SDS011;10047;42.490;26.012;2023-08-21T12:55:42;13.60;;;5.65;;
19776;SDS011;10047;42.490;26.012;2023-08-21T12:58:08;8.13;;;5.80;;
19776;SDS011;10047;42.490;26.012;2023-08-21T13:00:33;10.85;;;5.80;;
19776;SDS011;10047;42.490;26.012;2023-08-21T13:02:59;14.27;;;6.38;;
19776;SDS011;10047;42.490;26.012;2023-08-21T13:05:25;10.77;;;6.47;;
19776;SDS011;10047;42.490;26.012;2023-08-21T13:07:50;12.10;;;6.75;;
19776;SDS011;10047;42.490;26.012;2023-08-21T13:10:16;10.55;;;6.20;;
19776;SDS011;10047;42.490;26.012;2023-08-21T13:12:41;9.70;;;6.32;;
19776;SDS011;10047;42.490;26.012;2023-08-21T13:15:07;9.63;;;5.63;;
19776;SDS011;10047;42.490;26.012;2023-08-21T13:17:33;11.55;;;6.03;;
19776;SDS011;10047;42.490;26.012;2023-08-21T13:19:59;8.27;;;5.70;;
19776;SDS011;10047;42.490;26.012;2023-08-21T13:22:24;9.27;;;7.18;;
19776;SDS011;10047;42.490;26.012;2023-08-21T13:24:50;8.10;;;6.82;;
19776;SDS011;10047;42.490;26.012;2023-08-21T13:27:15;8.40;;;7.53;;
19776;SDS011;10047;42.490;26.012;2023-08-21T13:29:41;13.23;;;7.95;;
19776;SDS011;10047;42.490;26.012;2023-08-21T13:32:06;10.90;;;6.70;;
19776;SDS011;10047;42.490;26.012;2023-08-21T13:34:32;10.68;;;6.85;;
19776;SDS011;10047;42.490;26.012;2023-08-21T13:36:57;10.77;;;7.32;;
19776;SDS011;10047;42.490;26.012;2023-08-21T13:39:22;11.57;;;7.38;;
19776;SDS011;10047;42.490;26.012;2023-08-21T13:41:48;10.25;;;7.50;;
19776;SDS011;10047;42.490;26.012;2023-08-21T13:44:15;9.77;;;7.20;;
19776;SDS011;10047;42.490;26.012;2023-08-21T13:46:40;8.63;;;6.72;;
19776;SDS011;10047;42.490;26.012;2023-08-21T13:49:06;9.23;;;7.57;;
19776;SDS011;10047;42.490;26.012;2023-08-21T13:51:32;11.02;;;7.40;;
19776;SDS011;10047;42.490;26.012;2023-08-21T13:53:57;12.10;;;7.70;;
19776;SDS011;10047;42.490;26.012;2023-08-21T13:56:22;10.55;;;6.70;;
19776;SDS011;10047;42.490;26.012;2023-08-21T13:58:48;10.57;;;7.03;;
19776;SDS011;10047;42.490;26.012;2023-08-21T14:01:13;10.43;;;6.43;;
19776;SDS011;10047;42.490;26.012;2023-08-21T14:03:39;6.05;;;5.45;;
19776;SDS011;10047;42.490;26.012;2023-08-21T14:06:06;9.13;;;5.15;;
19776;SDS011;10047;42.490;26.012;2023-08-21T14:08:35;6.97;;;5.30;;
19776;SDS011;10047;42.490;26.012;2023-08-21T14:11:00;9.00;;;5.13;;
19776;SDS011;10047;42.490;26.012;2023-08-21T14:13:26;7.47;;;5.10;;
19776;SDS011;10047;42.490;26.012;2023-08-21T14:15:51;9.52;;;5.03;;
19776;SDS011;10047;42.490;26.012;2023-08-21T14:18:16;7.70;;;4.85;;
19776;SDS011;10047;42.490;26.012;2023-08-21T14:20:42;8.95;;;4.90;;
19776;SDS011;10047;42.490;26.012;2023-08-21T14:23:07;7.05;;;4.63;;
19776;SDS011;10047;42.490;26.012;2023-08-21T14:25:33;7.60;;;4.90;;
19776;SDS011;10047;42.490;26.012;2023-08-21T14:27:58;7.60;;;4.70;;
19776;SDS011;10047;42.490;26.012;2023-08-21T14:30:24;7.85;;;4.70;;
19776;SDS011;10047;42.490;26.012;2023-08-21T14:32:49;6.25;;;4.40;;